Time;durP1;ratioP1;P1;durP2;ratioP2;P2;SDS_P1;SDS_P2;PMS_P1;PMS_P2;Temp;Humidity;BMP_temperature;BMP_pressure;BME280_temperature;BME280_humidity;BME280_pressure;Samples;Min_cycle;Max_cycle;Signal;HPM_P1;HPM_P2
2022/06/11 00:02:03;;;;;;;6.45;4.93;;;512.70;2380.80;;;;;;5104977;28;20050;-76
2022/06/11 00:04:38;;;;;;;8.88;5.88;;;512.70;2380.80;;;;;;5123063;28;20007;-78
2022/06/11 00:07:10;;;;;;;6.55;5.60;;;512.70;2380.80;;;;;;5123216;28;20114;-77
2022/06/11 00:09:37;;;;;;;9.80;6.55;;;512.80;2380.80;;;;;;5122936;28;20019;-77
2022/06/11 00:12:04;;;;;;;8.25;6.18;;;512.70;2380.80;;;;;;5110238;28;20122;-77
2022/06/11 00:14:32;;;;;;;8.02;6.10;;;512.70;2380.80;;;;;;5097315;28;20056;-78
2022/06/11 00:16:59;;;;;;;7.47;5.28;;;512.70;2380.80;;;;;;5097962;28;20024;-77
2022/06/11 00:19:26;;;;;;;7.03;5.68;;;512.70;2380.80;;;;;;5097898;28;20068;-76
2022/06/11 00:21:53;;;;;;;8.43;6.05;;;512.70;2380.80;;;;;;5097880;28;20020;-78
2022/06/11 00:24:21;;;;;;;11.60;5.93;;;512.80;2380.80;;;;;;5097788;28;20051;-77
2022/06/11 00:26:48;;;;;;;5.70;5.10;;;512.60;2380.80;;;;;;5096846;28;20553;-78
2022/06/11 00:29:15;;;;;;;7.18;5.15;;;512.70;2380.80;;;;;;5115074;28;20107;-78
2022/06/11 00:31:42;;;;;;;7.53;6.00;;;512.60;2380.80;;;;;;5096711;28;20422;-77
2022/06/11 00:34:09;;;;;;;6.78;6.07;;;512.50;2380.80;;;;;;5096859;28;20024;-78
2022/06/11 00:36:35;;;;;;;7.07;5.95;;;537.90;2406.40;;;;;;5096388;28;20028;-78
2022/06/11 00:39:02;;;;;;;8.18;7.25;;;512.70;2380.80;;;;;;5096695;28;20033;-78
2022/06/11 00:41:29;;;;;;;8.63;7.15;;;512.70;2380.80;;;;;;5096512;28;20023;-78
2022/06/11 00:43:55;;;;;;;9.75;6.20;;;512.70;2380.80;;;;;;5096053;28;20122;-78
2022/06/11 00:46:49;;;;;;;7.03;6.25;;;512.50;2380.80;;;;;;5096494;28;20114;-78
2022/06/11 00:49:45;;;;;;;8.02;5.57;;;512.80;2380.80;;;;;;5096462;28;20032;-78
2022/06/11 00:52:16;;;;;;;6.70;5.70;;;512.80;2380.80;;;;;;5096062;28;20028;-77
2022/06/11 00:54:46;;;;;;;9.80;6.55;;;512.80;2380.80;;;;;;5096047;28;20062;-78
2022/06/11 00:57:14;;;;;;;8.65;6.28;;;512.90;2380.80;;;;;;5096142;28;20035;-77
2022/06/11 00:59:58;;;;;;;7.25;6.05;;;512.90;2380.80;;;;;;5096269;28;20066;-77
2022/06/11 01:02:25;;;;;;;7.93;5.80;;;512.90;2380.80;;;;;;5114157;28;20497;-78
2022/06/11 01:04:57;;;;;;;9.07;6.05;;;512.80;2380.80;;;;;;5114110;28;20049;-78
2022/06/11 01:07:34;;;;;;;8.13;5.72;;;512.70;2380.80;;;;;;5114148;28;20016;-77
2022/06/11 01:10:23;;;;;;;8.68;5.72;;;512.70;2380.80;;;;;;5096023;28;20032;-78
2022/06/11 01:13:08;;;;;;;7.90;6.00;;;512.60;2380.80;;;;;;5095777;28;20024;-78
2022/06/11 01:15:37;;;;;;;10.00;6.28;;;512.50;2380.80;;;;;;5095970;28;20049;-78
2022/06/11 01:18:09;;;;;;;7.97;5.93;;;512.40;2380.80;;;;;;5095947;28;20513;-78
2022/06/11 01:20:39;;;;;;;;;;;512.50;2380.80;;;;;;5114616;28;20031;-77
2022/06/11 01:23:26;;;;;;;6.80;5.70;;;512.30;2380.80;;;;;;5095878;28;20280;-78
2022/06/11 01:26:00;;;;;;;6.63;5.97;;;512.30;2380.80;;;;;;5095572;28;20020;-78
2022/06/11 01:28:38;;;;;;;9.70;5.75;;;512.30;2380.80;;;;;;5095792;28;20084;-77
2022/06/11 01:31:03;;;;;;;7.78;6.60;;;512.40;2380.80;;;;;;5095948;28;20357;-78
2022/06/11 01:33:38;;;;;;;8.27;6.63;;;512.30;2380.80;;;;;;5095938;28;20115;-78
2022/06/11 01:36:09;;;;;;;8.85;6.80;;;512.30;2380.80;;;;;;5095705;28;20023;-79
2022/06/11 01:38:53;;;;;;;7.35;5.80;;;512.30;2380.80;;;;;;5095893;28;20123;-78
2022/06/11 01:41:41;;;;;;;8.48;7.25;;;512.40;2380.80;;;;;;5113539;28;20031;-77
2022/06/11 01:44:12;;;;;;;9.57;6.72;;;512.40;2380.80;;;;;;5095763;28;20028;-78
2022/06/11 01:46:42;;;;;;;8.02;6.80;;;512.40;2380.80;;;;;;5095531;28;20025;-78
2022/06/11 01:49:20;;;;;;;9.82;6.68;;;512.40;2380.80;;;;;;5113947;28;20088;-78
2022/06/11 01:51:57;;;;;;;8.63;7.10;;;512.40;2380.80;;;;;;5095522;28;20027;-77
2022/06/11 01:54:38;;;;;;;8.60;7.80;;;512.40;2380.80;;;;;;5095001;28;20396;-79
2022/06/11 01:57:38;;;;;;;10.23;8.82;;;512.50;2380.80;;;;;;5095735;28;20028;-78
2022/06/11 02:00:23;;;;;;;10.13;9.15;;;512.50;2380.80;;;;;;5113531;28;20020;-78
2022/06/11 02:03:07;;;;;;;11.38;10.18;;;512.40;2380.80;;;;;;5095840;28;20019;-79
2022/06/11 02:05:42;;;;;;;10.70;9.70;;;512.40;2380.80;;;;;;5114024;28;20024;-77
2022/06/11 02:08:24;;;;;;;11.35;10.25;;;512.50;2380.80;;;;;;5113472;28;20032;-77
2022/06/11 02:11:18;;;;;;;11.10;10.00;;;512.40;2380.80;;;;;;5113448;28;20430;-77
2022/06/11 02:13:47;;;;;;;12.05;10.77;;;512.50;2380.80;;;;;;5095530;28;20092;-77
2022/06/11 02:16:21;;;;;;;12.23;10.80;;;512.50;2380.80;;;;;;5095141;28;20024;-77
2022/06/11 02:18:50;;;;;;;10.35;9.25;;;512.50;2380.80;;;;;;5095291;28;20030;-78
2022/06/11 02:21:26;;;;;;;10.43;9.10;;;512.50;2380.80;;;;;;5095066;28;20516;-77
2022/06/11 02:23:58;;;;;;;10.25;9.25;;;512.50;2380.80;;;;;;5095255;28;20037;-78
2022/06/11 02:26:29;;;;;;;12.63;9.00;;;512.40;2380.80;;;;;;5098378;28;20464;-78
2022/06/11 02:28:58;;;;;;;10.85;9.48;;;512.40;2380.80;;;;;;5098734;28;20040;-78
2022/06/11 02:31:32;;;;;;;10.35;8.77;;;512.40;2380.80;;;;;;5117465;28;20111;-78
2022/06/11 02:34:02;;;;;;;11.15;9.43;;;512.30;2380.80;;;;;;5099049;28;20133;-78
2022/06/11 02:36:32;;;;;;;10.85;9.85;;;512.30;2380.80;;;;;;5098731;28;20105;-77
2022/06/11 02:39:02;;;;;;;13.90;10.18;;;512.30;2380.80;;;;;;5098919;28;20472;-77
2022/06/11 02:41:32;;;;;;;11.23;10.05;;;512.40;2380.80;;;;;;5098924;28;20054;-78
2022/06/11 02:43:58;;;;;;;14.40;10.65;;;512.40;2380.80;;;;;;5117169;28;20081;-78
2022/06/11 02:46:46;;;;;;;11.18;9.57;;;512.40;2380.80;;;;;;5098795;28;20027;-78
2022/06/11 02:49:19;;;;;;;10.75;9.38;;;512.50;2380.80;;;;;;5098535;28;20476;-76
2022/06/11 02:51:46;;;;;;;10.57;9.18;;;512.50;2380.80;;;;;;5098834;28;20024;-79
2022/06/11 02:54:13;;;;;;;10.88;9.77;;;512.50;2380.80;;;;;;5095124;28;20052;-78
2022/06/11 02:56:39;;;;;;;11.23;9.32;;;512.40;2380.80;;;;;;5095017;28;20028;-78
2022/06/11 02:59:05;;;;;;;13.80;9.88;;;512.40;2380.80;;;;;;5095133;28;20032;-78
2022/06/11 03:01:33;;;;;;;10.85;9.75;;;512.50;2380.80;;;;;;5095134;28;20028;-77
2022/06/11 03:03:59;;;;;;;10.90;9.88;;;512.40;2380.80;;;;;;5094779;28;20028;-78
2022/06/11 03:06:26;;;;;;;10.80;8.77;;;512.50;2380.80;;;;;;5094997;28;20074;-78
2022/06/11 03:08:53;;;;;;;13.63;9.30;;;512.50;2380.80;;;;;;5094928;28;20032;-76
2022/06/11 03:11:19;;;;;;;12.65;9.70;;;512.50;2380.80;;;;;;5094724;28;20035;-77
2022/06/11 03:13:45;;;;;;;11.23;9.20;;;512.50;2380.80;;;;;;5094982;28;20046;-78
2022/06/11 03:16:11;;;;;;;9.98;8.48;;;512.50;2380.80;;;;;;5094917;28;20091;-78
2022/06/11 03:18:38;;;;;;;8.80;7.90;;;512.40;2380.80;;;;;;5094569;28;20081;-77
2022/06/11 03:21:04;;;;;;;9.63;8.65;;;512.50;2380.80;;;;;;5096071;28;20020;-77
2022/06/11 03:23:29;;;;;;;9.82;8.93;;;512.50;2380.80;;;;;;5095750;28;20457;-77
2022/06/11 03:25:56;;;;;;;9.90;8.75;;;512.40;2380.80;;;;;;5094390;28;20059;-78
2022/06/11 03:28:26;;;;;;;9.32;8.35;;;512.40;2380.80;;;;;;5094593;28;20058;-77
2022/06/11 03:30:53;;;;;;;10.80;7.95;;;512.40;2380.80;;;;;;5094567;28;20054;-77
2022/06/11 03:33:20;;;;;;;9.55;8.18;;;512.50;2380.80;;;;;;5094598;28;20038;-77
2022/06/11 03:35:49;;;;;;;10.00;8.35;;;512.50;2380.80;;;;;;5094270;28;20358;-78
2022/06/11 03:38:15;;;;;;;10.65;8.20;;;512.50;2380.80;;;;;;5094574;28;20115;-77
2022/06/11 03:40:42;;;;;;;9.23;7.30;;;512.60;2380.80;;;;;;5094332;28;20448;-77
2022/06/11 03:43:08;;;;;;;9.32;7.07;;;512.60;2380.80;;;;;;5094383;28;20081;-78
2022/06/11 03:45:34;;;;;;;8.23;6.82;;;512.70;2380.80;;;;;;5093989;28;20024;-78
2022/06/11 03:48:00;;;;;;;9.00;6.72;;;512.60;2380.80;;;;;;5095561;28;20040;-78
2022/06/11 03:50:29;;;;;;;9.73;6.50;;;512.70;2380.80;;;;;;5094187;28;20388;-77
2022/06/11 03:52:56;;;;;;;9.75;7.43;;;512.60;2380.80;;;;;;5094085;28;20035;-77
2022/06/11 03:55:24;;;;;;;12.20;6.75;;;512.70;2380.80;;;;;;5094086;28;20400;-78
2022/06/11 03:57:51;;;;;;;9.93;6.82;;;512.60;2380.80;;;;;;5094068;28;20039;-78
2022/06/11 04:01:14;;;;;;;8.75;6.47;;;512.50;2380.80;;;;;;5093832;28;20413;-77
2022/06/11 04:03:09;;;;;;;11.20;6.55;;;512.50;2380.80;;;;;;5094810;28;20020;-77
2022/06/11 04:05:36;;;;;;;9.27;7.05;;;512.60;2380.80;;;;;;5094011;28;20024;-77
2022/06/11 04:08:02;;;;;;;7.97;6.70;;;512.60;2380.80;;;;;;5093537;28;20043;-78
2022/06/11 04:10:28;;;;;;;11.23;7.30;;;512.50;2380.80;;;;;;5095149;28;20046;-78
2022/06/11 04:12:54;;;;;;;8.90;6.88;;;512.70;2380.80;;;;;;5093827;28;20465;-77
2022/06/11 04:15:20;;;;;;;8.55;6.65;;;512.70;2380.80;;;;;;5094731;28;20027;-78
2022/06/11 04:17:46;;;;;;;9.35;6.75;;;512.70;2380.80;;;;;;5093650;28;20034;-78
2022/06/11 04:20:14;;;;;;;9.05;6.60;;;512.70;2380.80;;;;;;5093445;28;20028;-77
2022/06/11 04:22:40;;;;;;;9.35;6.82;;;512.80;2380.80;;;;;;5093559;28;20503;-78
2022/06/11 04:25:07;;;;;;;9.23;7.70;;;512.70;2380.80;;;;;;5093598;28;20429;-78
2022/06/11 04:27:33;;;;;;;7.65;6.72;;;512.70;2380.80;;;;;;5093092;28;20020;-78
2022/06/11 04:29:59;;;;;;;10.07;6.57;;;512.80;2380.80;;;;;;5094768;28;20020;-78
2022/06/11 04:32:27;;;;;;;9.05;6.47;;;512.80;2380.80;;;;;;5094712;28;20078;-77
2022/06/11 04:34:54;;;;;;;9.27;6.70;;;512.80;2380.80;;;;;;5093075;28;20024;-78
2022/06/11 04:37:23;;;;;;;11.45;7.55;;;512.90;2380.80;;;;;;5093257;28;20024;-77
2022/06/11 04:39:51;;;;;;;8.73;7.75;;;512.80;2380.80;;;;;;5093540;28;20115;-77
2022/06/11 04:42:18;;;;;;;10.77;7.30;;;512.80;2380.80;;;;;;5092915;28;20024;-77
2022/06/11 04:44:45;;;;;;;7.53;6.53;;;512.80;2380.80;;;;;;5093172;28;20039;-79
2022/06/11 04:47:13;;;;;;;8.02;6.28;;;512.80;2380.80;;;;;;5093133;28;20031;-77
2022/06/11 04:49:40;;;;;;;9.25;6.88;;;512.80;2380.80;;;;;;5092501;28;20032;-78
2022/06/11 04:52:06;;;;;;;12.70;7.57;;;512.90;2380.80;;;;;;5093011;28;20066;-78
2022/06/11 04:54:33;;;;;;;10.05;6.75;;;512.90;2380.80;;;;;;5092814;28;20040;-78
2022/06/11 04:56:59;;;;;;;10.32;7.40;;;512.90;2380.80;;;;;;5093738;28;20515;-78
2022/06/11 04:59:25;;;;;;;7.60;6.57;;;537.60;2406.40;;;;;;5092623;28;20032;-78
2022/06/11 05:01:51;;;;;;;9.30;6.22;;;537.60;2406.40;;;;;;5092990;28;20024;-78
2022/06/11 05:04:17;;;;;;;9.27;6.10;;;537.60;2406.40;;;;;;5092636;28;20458;-77
2022/06/11 05:06:45;;;;;;;8.50;6.45;;;537.70;2406.40;;;;;;5094147;28;20102;-79
2022/06/11 05:09:16;;;;;;;8.57;6.72;;;537.70;2406.40;;;;;;5092413;28;20032;-78
2022/06/11 05:11:43;;;;;;;8.98;7.13;;;537.90;2406.40;;;;;;5092794;28;20050;-78
2022/06/11 05:14:09;;;;;;;8.13;6.38;;;537.80;2406.40;;;;;;5092785;28;20024;-79
2022/06/11 05:16:37;;;;;;;13.57;7.68;;;537.80;2406.40;;;;;;5102361;28;20024;-78
2022/06/11 05:19:04;;;;;;;10.30;7.43;;;537.80;2406.40;;;;;;5113019;28;20059;-78
2022/06/11 05:21:30;;;;;;;11.90;7.65;;;537.80;2406.40;;;;;;5111982;28;20030;-78
2022/06/11 05:23:56;;;;;;;8.45;7.00;;;537.90;2406.40;;;;;;5112372;28;20066;-78
2022/06/11 05:26:26;;;;;;;10.57;7.15;;;537.90;2406.40;;;;;;5112860;28;20055;-78
2022/06/11 05:28:52;;;;;;;11.13;6.50;;;537.90;2406.40;;;;;;5112962;28;20032;-78
2022/06/11 05:31:18;;;;;;;7.95;6.28;;;538.00;2406.40;;;;;;5112603;28;20441;-79
2022/06/11 05:33:44;;;;;;;6.60;5.90;;;538.00;2406.40;;;;;;5112850;28;20020;-78
2022/06/11 05:36:13;;;;;;;8.70;6.15;;;538.10;2406.40;;;;;;5112911;28;20024;-78
2022/06/11 05:38:40;;;;;;;8.02;6.15;;;538.00;2406.40;;;;;;5113849;28;20074;-78
2022/06/11 05:41:06;;;;;;;7.93;6.25;;;538.00;2406.40;;;;;;5112736;28;20172;-78
2022/06/11 05:43:32;;;;;;;7.95;6.43;;;538.00;2406.40;;;;;;5114014;28;20102;-78
2022/06/11 05:46:13;;;;;;;10.48;7.10;;;538.10;2406.40;;;;;;5112039;28;20028;-79
2022/06/11 05:48:47;;;;;;;7.63;6.65;;;538.10;2406.40;;;;;;5112178;28;20080;-78
2022/06/11 05:51:22;;;;;;;14.70;7.22;;;538.20;2406.40;;;;;;5112229;28;20020;-78
2022/06/11 05:53:50;;;;;;;11.20;7.15;;;538.20;2406.40;;;;;;5112547;28;20043;-78
2022/06/11 05:56:17;;;;;;;7.38;6.68;;;538.20;2406.40;;;;;;5113721;28;20027;-79
2022/06/11 05:58:49;;;;;;;7.80;7.00;;;538.20;2406.40;;;;;;5112302;28;20028;-78
2022/06/11 06:01:18;;;;;;;10.95;7.30;;;538.20;2406.40;;;;;;5115654;28;20047;-78
2022/06/11 06:03:44;;;;;;;9.20;6.85;;;538.20;2406.40;;;;;;5116916;28;20035;-78
2022/06/11 06:06:10;;;;;;;10.00;7.40;;;538.30;2406.40;;;;;;5117723;28;20027;-78
2022/06/11 06:08:36;;;;;;;8.93;7.28;;;538.40;2406.40;;;;;;5117492;28;20039;-77
2022/06/11 06:11:01;;;;;;;11.73;7.95;;;538.50;2406.40;;;;;;5116660;28;20377;-76
2022/06/11 06:13:45;;;;;;;6.88;6.18;;;538.50;2406.40;;;;;;5116255;28;20077;-78
2022/06/11 06:16:11;;;;;;;8.20;6.70;;;538.50;2406.40;;;;;;5116399;28;20042;-78
2022/06/11 06:18:37;;;;;;;10.05;7.10;;;538.50;2406.40;;;;;;5117487;28;20422;-79
2022/06/11 06:21:04;;;;;;;10.68;7.13;;;563.20;2432.00;;;;;;5116148;28;20020;-79
2022/06/11 06:23:32;;;;;;;8.48;6.82;;;563.20;2432.00;;;;;;5116027;28;20030;-79
2022/06/11 06:25:58;;;;;;;6.35;5.75;;;563.30;2432.00;;;;;;5116407;28;20115;-78
2022/06/11 06:28:24;;;;;;;7.78;6.75;;;563.20;2432.00;;;;;;5116017;28;20066;-77
2022/06/11 06:30:50;;;;;;;9.02;6.20;;;563.30;2432.00;;;;;;5117562;28;20028;-77
2022/06/11 06:33:15;;;;;;;8.00;5.95;;;563.40;2432.00;;;;;;5116202;28;20032;-78
2022/06/11 06:35:41;;;;;;;7.53;6.30;;;563.40;2432.00;;;;;;5116098;28;20024;-78
2022/06/11 06:38:07;;;;;;;7.53;6.53;;;563.40;2432.00;;;;;;5117465;28;20059;-78
2022/06/11 06:40:34;;;;;;;8.55;6.25;;;563.30;2432.00;;;;;;5115667;28;20030;-78
2022/06/11 06:43:01;;;;;;;9.07;6.82;;;538.50;2406.40;;;;;;5116039;28;20020;-78
2022/06/11 06:45:26;;;;;;;8.07;7.20;;;563.30;2432.00;;;;;;5115871;28;20024;-77
2022/06/11 06:47:52;;;;;;;9.10;8.20;;;563.40;2432.00;;;;;;5115533;28;20027;-79
2022/06/11 06:50:18;;;;;;;9.55;7.68;;;563.40;2432.00;;;;;;5116388;28;20027;-77
2022/06/11 06:52:44;;;;;;;9.48;7.47;;;563.40;2432.00;;;;;;5116138;28;20020;-78
2022/06/11 06:55:13;;;;;;;10.68;7.95;;;563.40;2432.00;;;;;;5115292;28;20047;-77
2022/06/11 06:57:39;;;;;;;10.10;8.15;;;563.40;2432.00;;;;;;5116982;28;20023;-79
2022/06/11 07:00:07;;;;;;;9.25;7.40;;;563.50;2432.00;;;;;;5116096;28;20028;-78
2022/06/11 07:02:32;;;;;;;10.18;8.10;;;563.50;2432.00;;;;;;5115453;28;20491;-77
2022/06/11 07:04:59;;;;;;;8.18;7.38;;;563.40;2432.00;;;;;;5117232;28;20019;-78
2022/06/11 07:07:26;;;;;;;9.07;7.72;;;563.50;2432.00;;;;;;5115883;28;20035;-78
2022/06/11 07:09:56;;;;;;;8.85;7.95;;;563.20;2432.00;;;;;;5115045;28;20476;-78
2022/06/11 07:12:22;;;;;;;9.18;8.23;;;563.50;2432.00;;;;;;5115027;28;20048;-78
2022/06/11 07:14:48;;;;;;;9.32;7.60;;;563.50;2432.00;;;;;;5115265;28;20020;-78
2022/06/11 07:17:16;;;;;;;8.90;8.02;;;563.60;2432.00;;;;;;5114691;28;20026;-78
2022/06/11 07:19:49;;;;;;;12.27;9.00;;;563.70;2432.00;;;;;;5115921;28;20028;-78
2022/06/11 07:22:25;;;;;;;11.13;9.05;;;563.80;2432.00;;;;;;5115542;28;20103;-77
2022/06/11 07:24:51;;;;;;;11.30;8.95;;;564.00;2432.00;;;;;;5115356;28;20027;-75
2022/06/11 07:27:25;;;;;;;10.50;8.93;;;563.90;2432.00;;;;;;5115358;28;20029;-77
2022/06/11 07:30:19;;;;;;;10.50;8.68;;;564.00;2432.00;;;;;;5114632;28;20491;-77
2022/06/11 07:32:49;;;;;;;11.38;9.73;;;564.00;2432.00;;;;;;5113861;28;20069;-77
2022/06/11 07:35:16;;;;;;;11.32;8.45;;;564.10;2432.00;;;;;;5114803;28;20675;-77
2022/06/11 07:37:44;;;;;;;12.07;8.88;;;564.10;2432.00;;;;;;5115778;28;20020;-77
2022/06/11 07:40:11;;;;;;;10.30;8.95;;;564.10;2432.00;;;;;;5114121;28;20047;-78
2022/06/11 07:42:37;;;;;;;11.23;8.52;;;564.10;2432.00;;;;;;5105194;28;20110;-78
2022/06/11 07:45:04;;;;;;;11.20;8.60;;;564.10;2432.00;;;;;;5105671;28;20020;-78
2022/06/11 07:50:14;;;;;;;13.20;10.45;;;588.80;2432.00;;;;;;5115556;28;20050;-77
2022/06/11 07:52:41;;;;;;;16.30;11.05;;;564.10;2432.00;;;;;;5115791;28;20068;-77
2022/06/11 07:55:09;;;;;;;14.25;12.43;;;564.10;2432.00;;;;;;5131580;27;20039;-77
2022/06/11 07:57:35;;;;;;;15.02;13.55;;;564.10;2432.00;;;;;;5135708;27;20380;-77
2022/06/11 08:00:03;;;;;;;13.70;12.50;;;564.10;2432.00;;;;;;5117584;27;20031;-77
2022/06/11 08:02:28;;;;;;;16.08;13.13;;;564.00;2432.00;;;;;;5117679;27;20055;-77
2022/06/11 08:04:54;;;;;;;13.15;11.75;;;564.00;2432.00;;;;;;5135855;27;20027;-78
2022/06/11 08:07:21;;;;;;;9.98;9.07;;;564.10;2432.00;;;;;;5117349;27;20023;-76
2022/06/11 08:09:47;;;;;;;13.02;11.73;;;588.80;2432.00;;;;;;5135840;27;20030;-78
2022/06/11 08:12:12;;;;;;;12.88;11.57;;;588.80;2432.00;;;;;;5117324;27;20019;-77
2022/06/11 08:14:38;;;;;;;11.63;9.32;;;588.90;2432.00;;;;;;5115124;27;20027;-76
2022/06/11 08:17:04;;;;;;;9.70;8.70;;;589.00;2432.00;;;;;;5117725;27;20396;-77
2022/06/11 08:19:30;;;;;;;10.27;8.05;;;589.20;2432.00;;;;;;5142877;27;20027;-76
2022/06/11 08:21:56;;;;;;;9.75;7.97;;;589.20;2432.00;;;;;;5134880;27;20023;-77
2022/06/11 08:24:23;;;;;;;10.07;8.65;;;589.30;2432.00;;;;;;5108469;28;20038;-76
2022/06/11 08:26:49;;;;;;;10.27;8.73;;;589.30;2432.00;;;;;;5115184;28;20027;-77
2022/06/11 08:29:15;;;;;;;9.27;8.38;;;589.40;2432.00;;;;;;5101801;28;20027;-77
2022/06/11 08:31:40;;;;;;;9.50;8.50;;;589.50;2432.00;;;;;;5115192;28;20027;-76
2022/06/11 08:34:06;;;;;;;9.82;8.82;;;589.40;2432.00;;;;;;5119509;27;20032;-78
2022/06/11 08:36:32;;;;;;;9.52;8.52;;;589.30;2432.00;;;;;;5106022;27;20019;-76
2022/06/11 08:38:58;;;;;;;9.65;8.23;;;589.30;2432.00;;;;;;5101539;28;20065;-76
2022/06/11 08:41:30;;;;;;;12.63;9.38;;;589.20;2432.00;;;;;;5104725;27;20105;-77
2022/06/11 08:44:02;;;;;;;11.65;9.40;;;589.20;2432.00;;;;;;5126717;27;20393;-77
2022/06/11 08:46:32;;;;;;;9.05;8.18;;;589.10;2432.00;;;;;;5113986;27;20033;-77
2022/06/11 08:49:04;;;;;;;9.93;8.63;;;589.20;2432.00;;;;;;5134798;27;20046;-77
2022/06/11 08:52:04;;;;;;;10.05;9.00;;;589.20;2432.00;;;;;;5116855;27;20468;-78
2022/06/11 08:54:35;;;;;;;10.10;8.52;;;589.20;2432.00;;;;;;5116281;27;20058;-76
2022/06/11 08:57:17;;;;;;;13.00;8.48;;;589.30;2432.00;;;;;;5116261;27;20461;-76
2022/06/11 08:59:58;;;;;;;10.20;8.63;;;589.40;2432.00;;;;;;5134867;27;20503;-76
2022/06/11 09:03:09;;;;;;;12.57;9.25;;;589.50;2432.00;;;;;;5107313;28;20260;-77
2022/06/11 09:05:53;;;;;;;8.85;8.05;;;589.50;2432.00;;;;;;5095887;28;20024;-76
2022/06/11 09:08:37;;;;;;;10.98;8.05;;;589.60;2432.00;;;;;;5095733;28;20035;-75
2022/06/11 09:11:33;;;;;;;10.23;9.23;;;589.70;2432.00;;;;;;5114400;28;20031;-76
2022/06/11 09:14:20;;;;;;;10.50;9.38;;;589.60;2432.00;;;;;;5095942;28;20028;-77
2022/06/11 09:16:55;;;;;;;29.35;12.02;;;589.50;2432.00;;;;;;5096010;28;20054;-76
2022/06/11 09:19:52;;;;;;;11.30;10.10;;;589.50;2432.00;;;;;;5095727;28;20031;-75
2022/06/11 09:22:27;;;;;;;12.88;10.43;;;589.50;2432.00;;;;;;5095507;28;20032;-77
2022/06/11 09:25:01;;;;;;;18.42;10.90;;;589.50;2432.00;;;;;;5113856;28;20088;-76
2022/06/11 09:27:44;;;;;;;14.18;10.48;;;589.20;2432.00;;;;;;5095672;28;20034;-76
2022/06/11 09:30:29;;;;;;;12.93;10.15;;;589.50;2432.00;;;;;;5112940;28;20384;-77
2022/06/11 09:33:04;;;;;;;17.02;10.60;;;589.50;2432.00;;;;;;5095741;28;20038;-77
2022/06/11 09:35:41;;;;;;;16.02;11.02;;;589.60;2432.00;;;;;;5123505;27;20053;-77
2022/06/11 09:38:14;;;;;;;17.02;13.65;;;589.60;2432.00;;;;;;5113559;28;20505;-77
2022/06/11 09:40:44;;;;;;;14.80;12.63;;;589.70;2432.00;;;;;;5116122;28;20031;-77
2022/06/11 09:43:13;;;;;;;15.63;12.60;;;589.70;2432.00;;;;;;5134123;28;20405;-76
2022/06/11 09:45:46;;;;;;;15.75;13.82;;;589.60;2432.00;;;;;;5115909;28;20072;-76
2022/06/11 09:48:21;;;;;;;18.23;13.25;;;589.70;2432.00;;;;;;5134104;28;20541;-76
2022/06/11 09:51:02;;;;;;;12.15;10.80;;;589.70;2432.00;;;;;;5134066;28;20026;-76
2022/06/11 09:53:48;;;;;;;12.80;11.40;;;589.60;2432.00;;;;;;5115837;28;20357;-76
2022/06/11 09:56:22;;;;;;;24.05;15.18;;;589.50;2432.00;;;;;;5114408;28;20031;-76
2022/06/11 09:59:00;;;;;;;19.55;15.18;;;589.50;2432.00;;;;;;5115749;28;20026;-77
2022/06/11 10:01:36;;;;;;;23.33;16.70;;;589.50;2432.00;;;;;;5115909;28;20065;-76
2022/06/11 10:04:08;;;;;;;15.55;14.07;;;589.50;2432.00;;;;;;5112045;28;20020;-75
2022/06/11 10:06:47;;;;;;;18.93;15.27;;;589.50;2432.00;;;;;;5113771;28;20023;-75
2022/06/11 10:09:22;;;;;;;16.80;15.10;;;589.60;2432.00;;;;;;5095508;28;20465;-76
2022/06/11 10:12:06;;;;;;;18.98;16.50;;;589.60;2432.00;;;;;;5095008;28;20037;-76
2022/06/11 10:14:51;;;;;;;15.00;13.48;;;589.60;2432.00;;;;;;5113395;28;20362;-76
2022/06/11 10:17:46;;;;;;;15.77;13.48;;;589.60;2432.00;;;;;;5113333;28;20024;-77
2022/06/11 10:20:33;;;;;;;18.10;16.17;;;589.50;2432.00;;;;;;5095287;28;20506;-76
2022/06/11 10:23:22;;;;;;;14.30;12.80;;;589.30;2432.00;;;;;;5095251;28;20066;-76
2022/06/11 10:26:09;;;;;;;15.15;12.93;;;589.40;2432.00;;;;;;5057241;28;20059;-76
2022/06/11 10:28:44;;;;;;;13.85;12.50;;;589.50;2432.00;;;;;;5113681;28;20042;-77
2022/06/11 10:31:50;;;;;;;13.15;11.82;;;589.50;2432.00;;;;;;5095016;28;20019;-76
2022/06/11 10:34:22;;;;;;;13.60;12.18;;;589.50;2432.00;;;;;;5062766;28;20135;-77
2022/06/11 10:37:00;;;;;;;21.45;17.33;;;589.50;2432.00;;;;;;5095120;28;20027;-75
2022/06/11 10:39:34;;;;;;;17.77;15.77;;;589.60;2432.00;;;;;;5094847;28;20077;-76
2022/06/11 10:42:05;;;;;;;19.25;13.63;;;589.70;2432.00;;;;;;5095078;28;20446;-75
2022/06/11 10:44:37;;;;;;;19.25;16.50;;;589.70;2432.00;;;;;;5095002;28;20077;-76
2022/06/11 10:47:36;;;;;;;18.17;16.15;;;589.70;2432.00;;;;;;5097218;28;20027;-76
2022/06/11 10:50:11;;;;;;;18.45;15.88;;;614.40;2432.00;;;;;;5098545;28;20096;-77
2022/06/11 10:53:04;;;;;;;15.23;13.82;;;589.70;2432.00;;;;;;5098247;28;20026;-76
2022/06/11 10:55:40;;;;;;;17.48;15.75;;;589.60;2432.00;;;;;;5114243;27;20405;-76
2022/06/11 10:58:15;;;;;;;17.83;16.02;;;589.60;2432.00;;;;;;5137364;27;20151;-76
2022/06/11 11:00:45;;;;;;;14.05;12.75;;;589.50;2432.00;;;;;;5118551;27;20031;-77
2022/06/11 11:03:52;;;;;;;13.98;12.57;;;589.30;2432.00;;;;;;5118888;27;20030;-76
2022/06/11 11:06:34;;;;;;;16.23;14.68;;;589.20;2432.00;;;;;;5136909;27;20025;-74
2022/06/11 11:09:06;;;;;;;17.52;15.55;;;589.00;2432.00;;;;;;5137191;27;20084;-76
2022/06/11 11:11:44;;;;;;;18.65;15.85;;;588.90;2432.00;;;;;;5137237;27;20068;-76
2022/06/11 11:14:19;;;;;;;17.17;15.55;;;588.80;2432.00;;;;;;5118438;27;20033;-77
2022/06/11 11:16:49;;;;;;;16.05;14.35;;;588.80;2432.00;;;;;;5118803;27;20425;-75
2022/06/11 11:19:19;;;;;;;17.90;15.95;;;564.10;2432.00;;;;;;5118264;27;20125;-75
2022/06/11 11:22:07;;;;;;;16.38;14.75;;;564.00;2432.00;;;;;;5118354;27;20106;-75
2022/06/11 11:24:44;;;;;;;18.60;16.70;;;564.00;2432.00;;;;;;5136732;27;20035;-75
2022/06/11 11:27:17;;;;;;;18.33;16.52;;;564.00;2432.00;;;;;;5118320;27;20023;-75
2022/06/11 11:30:19;;;;;;;19.08;17.17;;;564.00;2432.00;;;;;;5136827;27;20088;-76
2022/06/11 11:32:47;;;;;;;17.57;15.80;;;564.00;2432.00;;;;;;5118275;27;20122;-76
2022/06/11 11:35:27;;;;;;;19.98;18.02;;;563.80;2432.00;;;;;;5117862;27;20266;-77
2022/06/11 11:37:56;;;;;;;20.15;18.33;;;563.80;2432.00;;;;;;5118234;27;20467;-75
2022/06/11 11:40:29;;;;;;;18.58;16.83;;;564.00;2432.00;;;;;;5118109;27;20148;-76
2022/06/11 11:43:03;;;;;;;20.00;17.98;;;564.00;2432.00;;;;;;5117942;27;20027;-76
2022/06/11 11:45:44;;;;;;;19.45;17.35;;;564.00;2432.00;;;;;;5136096;27;20047;-75
2022/06/11 11:48:35;;;;;;;19.42;17.40;;;564.00;2432.00;;;;;;5117615;27;20037;-76
2022/06/11 11:51:17;;;;;;;23.23;20.73;;;564.00;2432.00;;;;;;5117973;27;20109;-76
2022/06/11 11:53:49;;;;;;;24.88;21.10;;;564.10;2432.00;;;;;;5136367;27;20136;-76
2022/06/11 11:56:24;;;;;;;22.30;20.20;;;564.10;2432.00;;;;;;5135671;27;20072;-75
2022/06/11 11:58:56;;;;;;;22.00;19.90;;;564.10;2432.00;;;;;;5116582;27;20434;-75
2022/06/11 12:01:25;;;;;;;37.20;25.30;;;564.00;2432.00;;;;;;5117538;27;20023;-75
2022/06/11 12:04:06;;;;;;;30.80;25.23;;;563.90;2432.00;;;;;;5117304;27;20031;-75
2022/06/11 12:06:45;;;;;;;28.55;25.35;;;563.70;2432.00;;;;;;5117645;27;20468;-75
2022/06/11 12:09:23;;;;;;;30.13;23.30;;;563.50;2432.00;;;;;;5117201;27;20035;-76
2022/06/11 12:12:17;;;;;;;24.50;21.42;;;563.40;2432.00;;;;;;5117576;27;20023;-76
2022/06/11 12:14:58;;;;;;;23.98;21.55;;;563.30;2432.00;;;;;;5135171;27;20071;-77
2022/06/11 12:17:24;;;;;;;28.65;25.85;;;563.30;2432.00;;;;;;5116836;27;20023;-77
2022/06/11 12:19:56;;;;;;;28.70;25.60;;;563.20;2432.00;;;;;;5117328;27;20034;-77
2022/06/11 12:22:32;;;;;;;32.38;27.38;;;563.20;2432.00;;;;;;5117487;27;20031;-77
2022/06/11 12:25:00;;;;;;;41.47;37.25;;;563.20;2432.00;;;;;;5116958;27;20027;-76
2022/06/11 12:27:39;;;;;;;32.28;28.67;;;538.50;2406.40;;;;;;5131171;27;20030;-76
2022/06/11 12:30:16;;;;;;;26.85;24.25;;;563.20;2432.00;;;;;;5107619;27;20031;-77
2022/06/11 12:32:42;;;;;;;25.83;23.20;;;563.20;2432.00;;;;;;5108829;27;20023;-78
2022/06/11 12:35:35;;;;;;;27.85;25.15;;;563.20;2432.00;;;;;;5117102;27;20031;-77
2022/06/11 12:38:29;;;;;;;24.10;21.52;;;563.20;2432.00;;;;;;5116879;27;20117;-78